createdAt,value
2018-04-01T00:01:54.186Z,100265.88
2018-04-01T00:04:21.762Z,100264.95
2018-04-01T00:06:49.349Z,100266.09
2018-04-01T00:09:16.902Z,100261.73
2018-04-01T00:11:44.526Z,100269.82
2018-04-01T00:14:12.080Z,100269.67
2018-04-01T00:29:34.696Z,100266.09
2018-04-01T00:32:02.287Z,100279.23
2018-04-01T00:34:29.861Z,100276.71
2018-04-01T00:36:57.467Z,100284.87
2018-04-01T00:39:25.335Z,100283.23
2018-04-01T00:41:53.664Z,100291.63
2018-04-01T00:44:21.331Z,100286.34
2018-04-01T00:46:48.901Z,100289.94
2018-04-01T00:49:16.472Z,100298.79
2018-04-01T00:51:44.371Z,100299.92
2018-04-01T00:54:11.935Z,100299.64
2018-04-01T00:56:39.501Z,100301.16
2018-04-01T00:59:07.095Z,100306.95
2018-04-01T01:01:34.676Z,100303.53
2018-04-01T01:04:02.260Z,100302.14
2018-04-01T01:06:31.678Z,100300.42
2018-04-01T01:08:59.240Z,100300.45
2018-04-01T01:11:26.822Z,100297.87
2018-04-01T01:13:54.397Z,100304.59
2018-04-01T01:16:21.969Z,100307.47
2018-04-01T01:18:50.363Z,100306.22
2018-04-01T01:21:17.949Z,100303.58
2018-04-01T01:23:45.511Z,100311.59
2018-04-01T01:26:13.067Z,100314.80
2018-04-01T01:28:40.639Z,100315.22
2018-04-01T01:31:08.202Z,100322.59
2018-04-01T01:33:35.781Z,100315.85
2018-04-01T01:36:04.269Z,100313.12
2018-04-01T01:38:32.617Z,100317.59
2018-04-01T01:41:00.176Z,100314.09
2018-04-01T01:43:28.564Z,100317.39
2018-04-01T01:45:56.126Z,100315.48
2018-04-01T01:48:23.685Z,100311.41
2018-04-01T01:50:51.293Z,100314.83
2018-04-01T01:53:18.858Z,100318.07
2018-04-01T01:55:47.126Z,100306.77
2018-04-01T01:58:14.722Z,100308.69
2018-04-01T02:00:42.354Z,100312.48
2018-04-01T02:03:10.281Z,100315.91
2018-04-01T02:05:37.996Z,100319.58
2018-04-01T02:08:05.542Z,100317.89
2018-04-01T02:10:33.122Z,100319.72
2018-04-01T02:13:01.402Z,100323.94
2018-04-01T02:15:28.965Z,100326.83
2018-04-01T02:17:56.545Z,100318.58
2018-04-01T02:20:24.135Z,100318.53
2018-04-01T02:22:51.702Z,100321.79
2018-04-01T02:25:19.286Z,100322.16
2018-04-01T02:27:47.198Z,100327.70
2018-04-01T02:30:14.763Z,100324.52
2018-04-01T02:32:42.403Z,100328.68
2018-04-01T02:35:10.901Z,100329.11
2018-04-01T02:37:38.455Z,100332.69
2018-04-01T02:40:06.355Z,100333.84
2018-04-01T02:42:33.946Z,100333.94
2018-04-01T02:45:02.059Z,100325.11
2018-04-01T02:47:29.828Z,100336.33
2018-04-01T02:49:57.410Z,100332.70
2018-04-01T02:52:25.276Z,100335.61
2018-04-01T02:54:52.831Z,100334.38
2018-04-01T02:57:20.402Z,100340.61
2018-04-01T02:59:47.959Z,100338.95
2018-04-01T03:02:15.513Z,100338.93
2018-04-01T03:04:43.103Z,100337.58
2018-04-01T03:07:10.649Z,100333.72
2018-04-01T03:09:38.217Z,100343.94
2018-04-01T03:12:05.792Z,100341.46
2018-04-01T03:14:33.355Z,100340.56
2018-04-01T03:17:00.962Z,100341.05
2018-04-01T03:19:28.521Z,100343.42
2018-04-01T03:21:56.085Z,100343.70
2018-04-01T03:24:24.076Z,100348.55
2018-04-01T03:26:51.674Z,100350.80
2018-04-01T03:29:20.106Z,100354.83
2018-04-01T03:31:47.941Z,100352.14
2018-04-01T03:34:15.999Z,100360.87
2018-04-01T03:36:43.877Z,100362.67
2018-04-01T03:39:11.429Z,100365.27
2018-04-01T03:41:39.010Z,100364.84
2018-04-01T03:44:06.621Z,100365.44
2018-04-01T03:46:34.195Z,100362.59
2018-04-01T03:49:01.828Z,100367.03
2018-04-01T03:51:29.399Z,100370.61
2018-04-01T03:53:56.977Z,100375.91
2018-04-01T03:56:24.565Z,100374.64
2018-04-01T03:58:52.145Z,100380.70
2018-04-01T04:01:19.972Z,100388.72
2018-04-01T04:03:47.567Z,100386.56
2018-04-01T04:06:15.133Z,100393.97
2018-04-01T04:18:22.874Z,100388.27
2018-04-01T04:20:50.422Z,100395.20
2018-04-01T04:23:17.966Z,100394.75
2018-04-01T04:25:45.544Z,100402.97
2018-04-01T04:28:13.424Z,100398.36
2018-04-01T04:43:31.106Z,100422.47
2018-04-01T04:45:58.647Z,100430.16
2018-04-01T04:48:26.202Z,100439.38
2018-04-01T04:50:53.806Z,100437.09
2018-04-01T04:53:21.876Z,100428.92
2018-04-01T04:55:49.470Z,100433.08
2018-04-01T04:58:18.018Z,100433.02
2018-04-01T05:00:45.546Z,100438.08
2018-04-01T05:03:13.134Z,100434.13
2018-04-01T05:05:40.718Z,100431.81
2018-04-01T05:08:08.316Z,100443.19
2018-04-01T05:10:35.897Z,100441.70
2018-04-01T05:13:03.442Z,100447.82
2018-04-01T05:15:31.357Z,100445.41
2018-04-01T05:17:58.968Z,100447.09
2018-04-01T05:20:26.799Z,100449.16
2018-04-01T05:22:54.500Z,100451.17
2018-04-01T05:25:22.050Z,100457.36
2018-04-01T05:27:50.600Z,100449.72
2018-04-01T05:30:18.150Z,100457.10
2018-04-01T05:32:45.817Z,100456.69
2018-04-01T05:35:13.391Z,100457.64
2018-04-01T05:37:40.954Z,100461.83
2018-04-01T05:40:08.578Z,100470.39
2018-04-01T05:42:36.150Z,100471.97
2018-04-01T05:45:03.705Z,100470.31
2018-04-01T05:47:31.297Z,100478.49
2018-04-01T05:49:59.644Z,100480.70
2018-04-01T05:52:27.239Z,100479.44
2018-04-01T05:54:55.616Z,100484.10
2018-04-01T05:57:23.180Z,100486.81
2018-04-01T05:59:51.545Z,100490.02
2018-04-01T06:02:19.147Z,100495.38
2018-04-01T06:04:46.714Z,100500.22
2018-04-01T06:07:14.291Z,100506.96
2018-04-01T06:09:41.852Z,100512.78
2018-04-01T06:12:09.412Z,100516.29
2018-04-01T06:24:16.970Z,100533.50
2018-04-01T06:26:44.549Z,100537.27
2018-04-01T06:29:12.114Z,100536.77
2018-04-01T06:31:40.246Z,100547.51
2018-04-01T06:34:07.810Z,100545.18
2018-04-01T06:36:35.379Z,100554.51
2018-04-01T06:39:03.002Z,100554.60
2018-04-01T06:41:30.608Z,100555.42
2018-04-01T06:43:58.162Z,100567.06
2018-04-01T06:46:25.756Z,100561.26
2018-04-01T06:48:54.122Z,100560.08
2018-04-01T06:51:21.665Z,100568.04
2018-04-01T06:53:49.586Z,100565.09
2018-04-01T06:56:17.182Z,100570.80
2018-04-01T06:58:44.763Z,100572.73
2018-04-01T07:01:12.342Z,100574.66
2018-04-01T07:03:39.910Z,100578.06
2018-04-01T07:06:07.467Z,100583.28
2018-04-01T07:08:35.842Z,100587.62
2018-04-01T07:11:03.431Z,100593.69
2018-04-01T07:13:31.036Z,100600.92
2018-04-01T07:15:58.718Z,100599.51
2018-04-01T07:18:26.279Z,100604.13
2018-04-01T07:20:54.719Z,100608.92
2018-04-01T07:23:22.315Z,100625.02
2018-04-01T07:25:51.002Z,100626.39
2018-04-01T07:28:18.598Z,100629.50
2018-04-01T07:30:46.170Z,100641.45
2018-04-01T07:33:13.738Z,100645.25
2018-04-01T07:35:41.490Z,100647.06
2018-04-01T07:38:09.087Z,100644.59
2018-04-01T07:40:36.665Z,100649.06
2018-04-01T07:43:04.320Z,100647.13
2018-04-01T07:45:31.877Z,100653.54
2018-04-01T07:47:59.436Z,100652.94
2018-04-01T07:50:27.077Z,100654.70
2018-04-01T07:52:55.270Z,100658.48
2018-04-01T07:55:22.909Z,100664.10
2018-04-01T07:57:50.464Z,100670.39
2018-04-01T08:00:18.058Z,100666.34
2018-04-01T08:02:45.619Z,100689.81
2018-04-01T08:05:13.200Z,100690.08
2018-04-01T08:07:40.757Z,100715.69
2018-04-01T08:10:08.315Z,100711.98
2018-04-01T08:12:36.010Z,100716.68
2018-04-01T08:15:03.598Z,100725.33
2018-04-01T08:17:31.184Z,100730.66
2018-04-01T08:19:58.758Z,100734.23
2018-04-01T08:22:26.317Z,100744.78
2018-04-01T08:24:54.689Z,100741.59
2018-04-01T08:27:22.916Z,100755.74
2018-04-01T08:29:50.552Z,100763.77
2018-04-01T08:32:19.109Z,100777.03
2018-04-01T08:34:46.666Z,100779.34
2018-04-01T08:37:14.273Z,100780.77
2018-04-01T08:39:41.814Z,100787.46
2018-04-01T08:42:09.377Z,100788.58
2018-04-01T08:44:36.938Z,100804.58
2018-04-01T08:47:04.519Z,100808.39
2018-04-01T08:49:32.078Z,100808.22
2018-04-01T08:51:59.719Z,100809.03
2018-04-01T08:54:27.261Z,100809.30
2018-04-01T08:56:56.337Z,100813.53
2018-04-01T08:59:23.933Z,100816.32
2018-04-01T09:01:51.474Z,100822.06
2018-04-01T09:04:19.359Z,100821.07
2018-04-01T09:06:47.229Z,100831.11
2018-04-01T09:09:14.764Z,100837.84
2018-04-01T09:11:42.508Z,100845.59
2018-04-01T09:14:10.396Z,100854.75
2018-04-01T09:16:37.963Z,100851.20
2018-04-01T09:19:05.813Z,100857.05
2018-04-01T09:21:33.421Z,100855.75
2018-04-01T09:24:00.960Z,100863.50
2018-04-01T09:26:28.573Z,100870.27
2018-04-01T09:28:56.175Z,100869.64
2018-04-01T09:31:24.940Z,100883.92
2018-04-01T09:33:53.088Z,100882.34
2018-04-01T09:36:20.687Z,100880.98
2018-04-01T09:38:48.261Z,100886.30
2018-04-01T09:54:05.864Z,100908.30
2018-04-01T09:56:35.900Z,100912.69
2018-04-01T09:59:03.473Z,100909.49
2018-04-01T10:01:31.580Z,100905.86
2018-04-01T10:03:59.843Z,100917.16
2018-04-01T10:06:27.969Z,100916.00
2018-04-01T10:08:56.074Z,100913.16
2018-04-01T10:11:24.187Z,100916.96
2018-04-01T10:13:52.299Z,100932.76
2018-04-01T10:16:20.448Z,100940.27
2018-04-01T10:18:48.552Z,100943.47
2018-04-01T10:21:17.996Z,100948.75
2018-04-01T10:23:46.125Z,100951.03
2018-04-01T10:26:14.255Z,100956.45
2018-04-01T10:28:42.355Z,100956.55
2018-04-01T10:31:11.187Z,100955.93
2018-04-01T10:33:39.282Z,100956.02
2018-04-01T10:36:07.383Z,100967.51
2018-04-01T10:38:35.499Z,100975.70
2018-04-01T10:41:04.201Z,100983.02
2018-04-01T10:43:32.403Z,100989.02
2018-04-01T10:46:00.525Z,100994.31
2018-04-01T10:48:28.639Z,100994.27
2018-04-01T10:50:56.807Z,101002.45
2018-04-01T10:53:24.959Z,100998.27
2018-04-01T10:55:52.815Z,101001.55
2018-04-01T10:58:20.438Z,101000.84
2018-04-01T11:00:48.026Z,100999.27
2018-04-01T11:03:15.592Z,101005.03
2018-04-01T11:05:43.174Z,101005.84
2018-04-01T11:08:11.554Z,101009.45
2018-04-01T11:10:39.120Z,101022.03
2018-04-01T11:13:06.733Z,101015.37
2018-04-01T11:15:34.296Z,101020.88
2018-04-01T11:18:01.878Z,101028.06
2018-04-01T11:20:30.170Z,101033.02
2018-04-01T11:22:57.727Z,101035.98
2018-04-01T11:25:25.377Z,101041.64
2018-04-01T11:27:52.961Z,101044.03
2018-04-01T11:30:21.513Z,101035.73
2018-04-01T11:32:49.682Z,101047.98
2018-04-01T11:35:17.230Z,101053.22
2018-04-01T11:37:44.807Z,101054.07
2018-04-01T11:40:12.783Z,101048.06
2018-04-01T11:42:40.339Z,101061.95
2018-04-01T11:45:07.940Z,101056.45
2018-04-01T11:47:36.133Z,101064.22
2018-04-01T11:50:03.706Z,101061.09
2018-04-01T11:52:31.992Z,101069.09
2018-04-01T11:54:59.563Z,101074.70
2018-04-01T11:57:27.123Z,101081.05
2018-04-01T11:59:59.703Z,101076.56
2018-04-01T12:02:27.257Z,101077.33
2018-04-01T12:04:54.813Z,101078.80
2018-04-01T12:07:22.753Z,101081.95
2018-04-01T12:09:50.331Z,101088.62
2018-04-01T12:12:18.909Z,101090.14
2018-04-01T12:14:46.511Z,101091.80
2018-04-01T12:17:14.083Z,101095.41
2018-04-01T12:19:41.641Z,101096.75
2018-04-01T12:22:09.229Z,101097.67
2018-04-01T12:24:36.804Z,101105.58
2018-04-01T12:27:04.365Z,101095.23
2018-04-01T12:29:32.477Z,101098.62
2018-04-01T12:32:00.042Z,101097.76
2018-04-01T12:44:08.425Z,101115.30
2018-04-01T12:46:35.998Z,101122.68
2018-04-01T12:49:03.888Z,101127.02
2018-04-01T12:51:31.491Z,101121.31
2018-04-01T12:53:59.097Z,101129.17
2018-04-01T12:56:26.684Z,101135.45
2018-04-01T12:58:54.266Z,101133.80
2018-04-01T13:01:21.905Z,101135.66
2018-04-01T13:03:49.472Z,101138.41
2018-04-01T13:06:17.039Z,101147.52
2018-04-01T13:08:44.597Z,101151.33
2018-04-01T13:11:12.647Z,101158.61
2018-04-01T13:13:40.218Z,101158.38
2018-04-01T13:16:07.785Z,101160.03
2018-04-01T13:18:35.369Z,101163.02
2018-04-01T13:21:02.972Z,101169.92
2018-04-01T13:23:30.570Z,101169.06
2018-04-01T13:25:58.174Z,101168.23
2018-04-01T13:28:26.215Z,101169.75
2018-04-01T13:30:53.819Z,101174.72
2018-04-01T13:33:21.421Z,101171.25
2018-04-01T13:35:49.766Z,101173.56
2018-04-01T13:38:17.339Z,101179.66
2018-04-01T13:40:45.390Z,101167.25
2018-04-01T13:43:13.250Z,101175.55
2018-04-01T13:45:41.346Z,101178.52
2018-04-01T13:48:08.911Z,101178.73
2018-04-01T13:50:37.366Z,101177.83
2018-04-01T13:53:05.194Z,101183.97
2018-04-01T13:55:32.769Z,101189.91
2018-04-01T13:58:00.337Z,101179.89
2018-04-01T14:00:27.906Z,101184.38
2018-04-01T14:02:55.484Z,101187.12
2018-04-01T14:05:23.173Z,101181.30
2018-04-01T14:07:50.720Z,101184.72
2018-04-01T14:10:18.282Z,101188.36
2018-04-01T14:12:45.858Z,101186.81
2018-04-01T14:15:18.380Z,101188.88
2018-04-01T14:17:46.358Z,101185.61
2018-04-01T14:20:13.926Z,101182.25
2018-04-01T14:22:41.687Z,101186.25
2018-04-01T14:25:09.284Z,101189.87
2018-04-01T14:27:36.892Z,101191.08
2018-04-01T14:30:04.463Z,101190.94
2018-04-01T14:32:32.050Z,101192.45
2018-04-01T14:34:59.607Z,101189.95
2018-04-01T14:37:27.172Z,101200.14
2018-04-01T14:39:59.734Z,101203.07
2018-04-01T14:42:27.605Z,101207.89
2018-04-01T14:44:55.174Z,101215.38
2018-04-01T14:47:23.179Z,101219.98
2018-04-01T14:49:51.058Z,101219.07
2018-04-01T14:52:18.634Z,101227.20
2018-04-01T14:54:47.039Z,101224.52
2018-04-01T14:57:14.620Z,101226.45
2018-04-01T14:59:42.178Z,101230.58
2018-04-01T15:02:09.834Z,101245.87
2018-04-01T15:04:37.441Z,101244.53
2018-04-01T15:07:05.049Z,101242.45
2018-04-01T15:09:32.614Z,101248.78
2018-04-01T15:12:00.182Z,101250.11
2018-04-01T15:14:27.749Z,101246.06
2018-04-01T15:16:55.316Z,101250.80
2018-04-01T15:19:23.587Z,101244.11
2018-04-01T15:21:51.440Z,101245.48
2018-04-01T15:24:19.890Z,101237.54
2018-04-01T15:26:47.466Z,101239.39
2018-04-01T15:29:15.024Z,101242.30
2018-04-01T15:31:43.026Z,101243.67
2018-04-01T15:34:10.842Z,101242.83
2018-04-01T15:36:38.388Z,101244.98
2018-04-01T15:39:05.961Z,101250.50
2018-04-01T15:41:33.532Z,101255.45
2018-04-01T15:44:01.158Z,101260.92
2018-04-01T15:46:28.754Z,101260.51
2018-04-01T15:48:56.359Z,101264.94
2018-04-01T15:51:24.952Z,101263.22
2018-04-01T15:53:52.533Z,101263.03
2018-04-01T15:56:20.080Z,101266.60
2018-04-01T15:58:47.672Z,101268.93
2018-04-01T16:01:15.870Z,101261.55
2018-04-01T16:03:43.440Z,101273.91
2018-04-01T16:06:11.103Z,101270.90
2018-04-01T16:08:39.238Z,101270.90
2018-04-01T16:11:06.806Z,101274.35
2018-04-01T16:13:36.625Z,101271.12
2018-04-01T16:16:05.831Z,101269.92
2018-04-01T16:18:33.602Z,101283.73
2018-04-01T16:21:02.130Z,101277.78
2018-04-01T16:23:30.030Z,101278.22
2018-04-01T16:25:57.598Z,101282.27
2018-04-01T16:28:25.193Z,101282.95
2018-04-01T16:30:52.783Z,101285.63
2018-04-01T16:33:20.364Z,101286.95
2018-04-01T16:35:48.059Z,101283.25
2018-04-01T16:38:16.125Z,101289.39
2018-04-01T16:40:45.099Z,101290.19
2018-04-01T16:43:12.678Z,101290.92
2018-04-01T16:45:40.239Z,101294.06
2018-04-01T16:48:08.154Z,101291.22
2018-04-01T16:50:35.719Z,101287.91
2018-04-01T16:53:03.303Z,101294.02
2018-04-01T16:55:30.877Z,101287.65
2018-04-01T16:57:58.453Z,101290.02
2018-04-01T17:00:26.054Z,101292.86
2018-04-01T17:02:53.638Z,101287.73
2018-04-01T17:05:21.206Z,101290.15
2018-04-01T17:07:50.217Z,101290.66
2018-04-01T17:10:18.798Z,101297.63
2018-04-01T17:12:46.393Z,101294.75
2018-04-01T17:15:13.955Z,101307.36
2018-04-01T17:17:41.524Z,101303.83
2018-04-01T17:20:09.110Z,101304.61
2018-04-01T17:22:36.742Z,101299.09
2018-04-01T17:25:04.314Z,101307.36
2018-04-01T17:27:32.694Z,101305.08
2018-04-01T17:42:50.270Z,101331.23
2018-04-01T17:45:17.826Z,101317.24
2018-04-01T17:47:45.461Z,101317.19
2018-04-01T17:50:13.658Z,101322.30
2018-04-01T17:52:41.872Z,101321.92
2018-04-01T17:55:09.442Z,101313.84
2018-04-01T17:57:41.938Z,101314.23
2018-04-01T18:00:09.856Z,101314.97
2018-04-01T18:02:38.322Z,101312.56
2018-04-01T18:05:05.951Z,101317.84
2018-04-01T18:07:33.784Z,101321.19
2018-04-01T18:10:02.668Z,101324.67
2018-04-01T18:12:31.604Z,101329.36
2018-04-01T18:14:59.422Z,101324.25
2018-04-01T18:17:26.980Z,101324.19
2018-04-01T18:19:54.689Z,101326.41
2018-04-01T18:22:22.316Z,101329.28
2018-04-01T18:24:50.234Z,101329.48
2018-04-01T18:27:17.848Z,101334.40
2018-04-01T18:29:45.424Z,101344.44
2018-04-01T18:32:13.024Z,101342.46
2018-04-01T18:34:40.615Z,101341.68
2018-04-01T18:37:08.164Z,101343.41
2018-04-01T18:39:35.728Z,101350.34
2018-04-01T18:42:03.285Z,101351.68
2018-04-01T18:44:31.653Z,101353.69
2018-04-01T18:46:59.902Z,101359.46
2018-04-01T18:49:28.204Z,101355.97
2018-04-01T18:51:55.762Z,101359.24
2018-04-01T18:54:24.121Z,101360.06
2018-04-01T18:56:52.471Z,101369.16
2018-04-01T18:59:20.072Z,101367.78
2018-04-01T19:11:27.646Z,101371.77
2018-04-01T19:13:55.242Z,101372.80
2018-04-01T19:16:23.365Z,101377.07
2018-04-01T19:18:51.445Z,101382.80
2018-04-01T19:21:20.523Z,101385.00
2018-04-01T19:23:49.408Z,101383.63
2018-04-01T19:26:17.544Z,101385.39
2018-04-01T19:28:45.694Z,101382.91
2018-04-01T19:31:17.087Z,101374.80
2018-04-01T19:33:45.968Z,101378.02
2018-04-01T19:36:14.071Z,101372.92
2018-04-01T19:38:42.860Z,101375.13
2018-04-01T19:41:10.922Z,101375.78
2018-04-01T19:43:39.022Z,101379.35
2018-04-01T19:46:08.037Z,101374.22
2018-04-01T19:48:36.184Z,101374.02
2018-04-01T19:51:04.303Z,101379.78
2018-04-01T19:53:32.407Z,101374.33
2018-04-01T19:56:00.560Z,101371.22
2018-04-01T19:58:28.950Z,101373.44
2018-04-01T20:00:57.250Z,101372.28
2018-04-01T20:03:25.491Z,101368.76
2018-04-01T20:05:53.795Z,101366.38
2018-04-01T20:08:21.871Z,101362.45
2018-04-01T20:10:51.023Z,101360.86
2018-04-01T20:13:19.404Z,101360.98
2018-04-01T20:15:47.487Z,101360.39
2018-04-01T20:18:15.635Z,101357.66
2018-04-01T20:20:44.290Z,101365.80
2018-04-01T20:23:12.705Z,101367.48
2018-04-01T20:25:40.807Z,101360.43
2018-04-01T20:28:08.933Z,101366.95
2018-04-01T20:30:37.057Z,101361.48
2018-04-01T20:33:05.155Z,101363.67
2018-04-01T20:35:33.273Z,101361.38
2018-04-01T20:38:01.984Z,101364.86
2018-04-01T20:40:30.071Z,101362.95
2018-04-01T20:42:58.395Z,101366.44
2018-04-01T20:45:28.041Z,101368.56
2018-04-01T20:47:56.159Z,101370.25
2018-04-01T20:50:24.284Z,101367.43
2018-04-01T20:52:52.399Z,101375.27
2018-04-01T20:55:20.525Z,101367.75
2018-04-01T20:57:48.958Z,101368.22
2018-04-01T21:00:17.933Z,101368.14
2018-04-01T21:02:46.023Z,101366.73
2018-04-01T21:05:14.143Z,101366.89
2018-04-01T21:07:42.239Z,101368.69
2018-04-01T21:23:00.348Z,101346.69
2018-04-01T21:25:28.462Z,101346.13
2018-04-01T21:27:56.763Z,101340.69
2018-04-01T21:30:25.665Z,101337.09
2018-04-01T21:32:53.762Z,101344.72
2018-04-01T21:35:21.866Z,101353.39
2018-04-01T21:37:49.990Z,101348.87
2018-04-01T21:40:18.083Z,101357.89
2018-04-01T21:42:46.795Z,101349.64
2018-04-01T21:45:14.965Z,101357.67
2018-04-01T21:47:43.089Z,101350.75
2018-04-01T21:50:11.515Z,101353.09
2018-04-01T21:52:40.399Z,101353.34
2018-04-01T21:55:08.611Z,101355.66
2018-04-01T21:57:36.717Z,101358.09
2018-04-01T22:00:05.384Z,101356.48
2018-04-01T22:02:33.503Z,101350.71
2018-04-01T22:05:01.603Z,101350.31
2018-04-01T22:07:29.727Z,101340.64
2018-04-01T22:09:57.821Z,101332.11
2018-04-01T22:12:27.529Z,101326.39
2018-04-01T22:14:56.018Z,101322.28
2018-04-01T22:17:24.116Z,101323.30
2018-04-01T22:19:53.080Z,101321.79
2018-04-01T22:22:21.220Z,101313.84
2018-04-01T22:24:50.021Z,101310.20
2018-04-01T22:27:18.131Z,101308.33
2018-04-01T22:29:46.281Z,101305.84
2018-04-01T22:32:15.108Z,101297.34
2018-04-01T22:34:43.229Z,101290.91
2018-04-01T22:37:11.326Z,101298.58
2018-04-01T22:39:39.500Z,101293.00
2018-04-01T22:42:07.674Z,101296.14
2018-04-01T22:44:35.854Z,101299.84
2018-04-01T22:47:04.032Z,101304.73
2018-04-01T22:49:32.145Z,101303.18
2018-04-01T22:52:00.623Z,101300.30
2018-04-01T22:54:28.705Z,101302.79
2018-04-01T22:56:56.885Z,101301.34
2018-04-01T22:59:25.003Z,101302.49
2018-04-01T23:01:54.015Z,101298.49
2018-04-01T23:04:22.113Z,101302.25
2018-04-01T23:06:51.206Z,101289.28
2018-04-01T23:09:19.353Z,101282.02
2018-04-01T23:11:47.466Z,101281.05
2018-04-01T23:14:15.565Z,101281.37
2018-04-01T23:16:43.705Z,101286.30
2018-04-01T23:19:11.821Z,101281.80
2018-04-01T23:21:39.925Z,101282.98
2018-04-01T23:24:08.638Z,101279.81
2018-04-01T23:26:37.394Z,101275.61
2018-04-01T23:29:05.521Z,101276.27
2018-04-01T23:31:33.669Z,101276.56
2018-04-01T23:34:01.765Z,101272.89
2018-04-01T23:36:30.705Z,101270.44
2018-04-01T23:38:58.829Z,101270.04
2018-04-01T23:41:27.032Z,101270.94
2018-04-01T23:43:55.365Z,101267.22
2018-04-01T23:46:23.479Z,101272.62
2018-04-01T23:48:51.585Z,101265.39
2018-04-01T23:51:19.705Z,101265.11
2018-04-01T23:53:48.622Z,101263.78
2018-04-01T23:56:16.742Z,101258.17
2018-04-01T23:58:44.827Z,101260.00
